sensor_id;sensor_type;location;lat;lon;timestamp;P1;durP1;ratioP1;P2;durP2;ratioP2
18142;SDS011;9197;50.930;3.140;2023-09-18T00:02:23;6.85;;;5.22;;
18142;SDS011;9197;50.930;3.140;2023-09-18T00:04:51;7.30;;;5.32;;
18142;SDS011;9197;50.930;3.140;2023-09-18T00:07:19;4.97;;;4.50;;
18142;SDS011;9197;50.930;3.140;2023-09-18T00:09:46;6.80;;;4.20;;
18142;SDS011;9197;50.930;3.140;2023-09-18T00:12:14;7.10;;;4.70;;
18142;SDS011;9197;50.930;3.140;2023-09-18T00:14:41;7.10;;;4.95;;
18142;SDS011;9197;50.930;3.140;2023-09-18T00:17:08;8.30;;;4.97;;
18142;SDS011;9197;50.930;3.140;2023-09-18T00:19:35;6.65;;;5.72;;
18142;SDS011;9197;50.930;3.140;2023-09-18T00:22:04;5.88;;;4.65;;
18142;SDS011;9197;50.930;3.140;2023-09-18T00:24:31;8.23;;;5.45;;
18142;SDS011;9197;50.930;3.140;2023-09-18T00:26:59;9.13;;;5.80;;
18142;SDS011;9197;50.930;3.140;2023-09-18T00:29:26;7.97;;;5.10;;
18142;SDS011;9197;50.930;3.140;2023-09-18T00:31:53;5.85;;;5.18;;
18142;SDS011;9197;50.930;3.140;2023-09-18T00:34:20;7.57;;;5.38;;
18142;SDS011;9197;50.930;3.140;2023-09-18T00:36:47;8.15;;;5.70;;
18142;SDS011;9197;50.930;3.140;2023-09-18T00:39:16;6.65;;;4.82;;
18142;SDS011;9197;50.930;3.140;2023-09-18T00:41:43;5.72;;;4.93;;
18142;SDS011;9197;50.930;3.140;2023-09-18T00:44:14;8.35;;;5.85;;
18142;SDS011;9197;50.930;3.140;2023-09-18T00:46:41;5.75;;;5.25;;
18142;SDS011;9197;50.930;3.140;2023-09-18T00:49:08;8.45;;;5.57;;
18142;SDS011;9197;50.930;3.140;2023-09-18T00:51:37;9.18;;;5.55;;
18142;SDS011;9197;50.930;3.140;2023-09-18T00:54:04;6.53;;;5.03;;
18142;SDS011;9197;50.930;3.140;2023-09-18T00:56:33;5.70;;;5.13;;
18142;SDS011;9197;50.930;3.140;2023-09-18T00:59:03;5.38;;;4.75;;
18142;SDS011;9197;50.930;3.140;2023-09-18T01:01:30;8.73;;;5.78;;
18142;SDS011;9197;50.930;3.140;2023-09-18T01:03:57;7.88;;;5.50;;
18142;SDS011;9197;50.930;3.140;2023-09-18T01:06:25;7.43;;;5.53;;
18142;SDS011;9197;50.930;3.140;2023-09-18T01:08:55;6.22;;;5.60;;
18142;SDS011;9197;50.930;3.140;2023-09-18T01:11:26;9.93;;;6.82;;
18142;SDS011;9197;50.930;3.140;2023-09-18T01:13:58;7.75;;;6.28;;
18142;SDS011;9197;50.930;3.140;2023-09-18T01:16:30;8.02;;;6.43;;
18142;SDS011;9197;50.930;3.140;2023-09-18T01:18:59;8.95;;;6.43;;
18142;SDS011;9197;50.930;3.140;2023-09-18T01:21:28;6.88;;;5.97;;
18142;SDS011;9197;50.930;3.140;2023-09-18T01:23:56;8.85;;;6.47;;
18142;SDS011;9197;50.930;3.140;2023-09-18T01:26:23;8.27;;;6.55;;
18142;SDS011;9197;50.930;3.140;2023-09-18T01:28:51;7.30;;;5.93;;
18142;SDS011;9197;50.930;3.140;2023-09-18T01:31:18;8.73;;;6.63;;
18142;SDS011;9197;50.930;3.140;2023-09-18T01:33:45;7.90;;;5.63;;
18142;SDS011;9197;50.930;3.140;2023-09-18T01:36:13;6.18;;;5.40;;
18142;SDS011;9197;50.930;3.140;2023-09-18T01:38:41;10.00;;;6.28;;
18142;SDS011;9197;50.930;3.140;2023-09-18T01:41:10;7.75;;;6.20;;
18142;SDS011;9197;50.930;3.140;2023-09-18T01:43:37;7.30;;;5.18;;
18142;SDS011;9197;50.930;3.140;2023-09-18T01:46:05;7.50;;;5.90;;
18142;SDS011;9197;50.930;3.140;2023-09-18T01:48:32;7.00;;;5.60;;
18142;SDS011;9197;50.930;3.140;2023-09-18T01:50:59;9.23;;;5.95;;
18142;SDS011;9197;50.930;3.140;2023-09-18T01:53:26;5.85;;;5.25;;
18142;SDS011;9197;50.930;3.140;2023-09-18T01:55:54;8.93;;;5.47;;
18142;SDS011;9197;50.930;3.140;2023-09-18T01:58:22;6.05;;;5.45;;
18142;SDS011;9197;50.930;3.140;2023-09-18T02:00:52;7.00;;;5.80;;
18142;SDS011;9197;50.930;3.140;2023-09-18T02:03:19;6.38;;;5.72;;
18142;SDS011;9197;50.930;3.140;2023-09-18T02:05:47;6.40;;;5.55;;
18142;SDS011;9197;50.930;3.140;2023-09-18T02:08:14;6.32;;;5.13;;
18142;SDS011;9197;50.930;3.140;2023-09-18T02:10:41;5.47;;;5.07;;
18142;SDS011;9197;50.930;3.140;2023-09-18T02:13:08;5.97;;;4.35;;
18142;SDS011;9197;50.930;3.140;2023-09-18T02:15:38;6.47;;;4.53;;
18142;SDS011;9197;50.930;3.140;2023-09-18T02:18:05;5.68;;;3.88;;
18142;SDS011;9197;50.930;3.140;2023-09-18T02:20:39;6.03;;;3.50;;
18142;SDS011;9197;50.930;3.140;2023-09-18T02:23:06;5.30;;;3.88;;
18142;SDS011;9197;50.930;3.140;2023-09-18T02:25:33;5.35;;;3.95;;
18142;SDS011;9197;50.930;3.140;2023-09-18T02:28:00;4.80;;;3.60;;
18142;SDS011;9197;50.930;3.140;2023-09-18T02:30:28;3.67;;;3.38;;
18142;SDS011;9197;50.930;3.140;2023-09-18T02:32:56;7.60;;;3.28;;
18142;SDS011;9197;50.930;3.140;2023-09-18T02:35:24;5.47;;;3.80;;
18142;SDS011;9197;50.930;3.140;2023-09-18T02:37:51;3.58;;;3.10;;
18142;SDS011;9197;50.930;3.140;2023-09-18T02:40:19;6.18;;;2.85;;
18142;SDS011;9197;50.930;3.140;2023-09-18T02:42:46;4.70;;;3.40;;
18142;SDS011;9197;50.930;3.140;2023-09-18T02:45:13;8.68;;;3.38;;
18142;SDS011;9197;50.930;3.140;2023-09-18T02:47:40;3.28;;;2.80;;
18142;SDS011;9197;50.930;3.140;2023-09-18T02:50:09;5.82;;;3.30;;
18142;SDS011;9197;50.930;3.140;2023-09-18T02:52:37;4.60;;;2.97;;
18142;SDS011;9197;50.930;3.140;2023-09-18T02:55:04;3.17;;;2.80;;
18142;SDS011;9197;50.930;3.140;2023-09-18T02:57:31;3.95;;;2.35;;
18142;SDS011;9197;50.930;3.140;2023-09-18T02:59:58;4.30;;;2.40;;
18142;SDS011;9197;50.930;3.140;2023-09-18T03:02:26;4.18;;;2.65;;
18142;SDS011;9197;50.930;3.140;2023-09-18T03:04:53;6.43;;;2.30;;
18142;SDS011;9197;50.930;3.140;2023-09-18T03:07:21;3.42;;;2.25;;
18142;SDS011;9197;50.930;3.140;2023-09-18T03:09:49;2.92;;;2.33;;
18142;SDS011;9197;50.930;3.140;2023-09-18T03:12:16;5.68;;;2.75;;
18142;SDS011;9197;50.930;3.140;2023-09-18T03:14:43;2.63;;;2.42;;
18142;SDS011;9197;50.930;3.140;2023-09-18T03:17:12;6.65;;;2.65;;
18142;SDS011;9197;50.930;3.140;2023-09-18T03:19:39;6.45;;;3.60;;
18142;SDS011;9197;50.930;3.140;2023-09-18T03:22:06;4.45;;;3.10;;
18142;SDS011;9197;50.930;3.140;2023-09-18T03:24:34;4.95;;;3.17;;
18142;SDS011;9197;50.930;3.140;2023-09-18T03:27:02;4.78;;;3.75;;
18142;SDS011;9197;50.930;3.140;2023-09-18T03:29:29;4.63;;;3.22;;
18142;SDS011;9197;50.930;3.140;2023-09-18T03:31:56;3.40;;;3.10;;
18142;SDS011;9197;50.930;3.140;2023-09-18T03:34:24;3.78;;;2.67;;
18142;SDS011;9197;50.930;3.140;2023-09-18T03:36:52;3.72;;;2.95;;
18142;SDS011;9197;50.930;3.140;2023-09-18T03:39:19;3.25;;;2.60;;
18142;SDS011;9197;50.930;3.140;2023-09-18T03:41:47;4.40;;;2.63;;
18142;SDS011;9197;50.930;3.140;2023-09-18T03:44:15;4.80;;;2.70;;
18142;SDS011;9197;50.930;3.140;2023-09-18T03:46:42;3.88;;;3.40;;
18142;SDS011;9197;50.930;3.140;2023-09-18T03:49:09;3.33;;;2.60;;
18142;SDS011;9197;50.930;3.140;2023-09-18T03:51:37;4.30;;;2.72;;
18142;SDS011;9197;50.930;3.140;2023-09-18T03:54:04;5.90;;;2.58;;
18142;SDS011;9197;50.930;3.140;2023-09-18T03:56:31;3.95;;;3.13;;
18142;SDS011;9197;50.930;3.140;2023-09-18T03:59:00;5.93;;;2.53;;
18142;SDS011;9197;50.930;3.140;2023-09-18T04:01:27;3.78;;;3.47;;
18142;SDS011;9197;50.930;3.140;2023-09-18T04:03:54;5.22;;;2.90;;
18142;SDS011;9197;50.930;3.140;2023-09-18T04:06:22;4.82;;;2.78;;
18142;SDS011;9197;50.930;3.140;2023-09-18T04:08:50;5.20;;;2.95;;
18142;SDS011;9197;50.930;3.140;2023-09-18T04:11:17;5.00;;;2.92;;
18142;SDS011;9197;50.930;3.140;2023-09-18T04:13:51;7.63;;;3.95;;
18142;SDS011;9197;50.930;3.140;2023-09-18T04:16:19;7.10;;;3.17;;
18142;SDS011;9197;50.930;3.140;2023-09-18T04:18:46;5.88;;;2.88;;
18142;SDS011;9197;50.930;3.140;2023-09-18T04:21:14;5.85;;;3.10;;
18142;SDS011;9197;50.930;3.140;2023-09-18T04:23:41;2.92;;;2.63;;
18142;SDS011;9197;50.930;3.140;2023-09-18T04:26:08;3.85;;;3.15;;
18142;SDS011;9197;50.930;3.140;2023-09-18T04:28:35;6.00;;;3.05;;
18142;SDS011;9197;50.930;3.140;2023-09-18T04:31:03;3.45;;;3.15;;
18142;SDS011;9197;50.930;3.140;2023-09-18T04:33:31;6.25;;;3.60;;
18142;SDS011;9197;50.930;3.140;2023-09-18T04:35:58;4.93;;;2.78;;
18142;SDS011;9197;50.930;3.140;2023-09-18T04:38:25;4.03;;;2.70;;
18142;SDS011;9197;50.930;3.140;2023-09-18T04:40:57;6.35;;;3.20;;
18142;SDS011;9197;50.930;3.140;2023-09-18T04:43:24;5.47;;;3.10;;
18142;SDS011;9197;50.930;3.140;2023-09-18T04:45:51;4.97;;;2.85;;
18142;SDS011;9197;50.930;3.140;2023-09-18T04:48:19;6.85;;;2.72;;
18142;SDS011;9197;50.930;3.140;2023-09-18T04:50:48;6.43;;;3.30;;
18142;SDS011;9197;50.930;3.140;2023-09-18T04:53:15;6.85;;;2.83;;
18142;SDS011;9197;50.930;3.140;2023-09-18T04:55:42;4.50;;;3.33;;
18142;SDS011;9197;50.930;3.140;2023-09-18T04:58:11;5.72;;;3.45;;
18142;SDS011;9197;50.930;3.140;2023-09-18T05:00:38;5.60;;;4.47;;
18142;SDS011;9197;50.930;3.140;2023-09-18T05:03:06;6.10;;;4.30;;
18142;SDS011;9197;50.930;3.140;2023-09-18T05:05:34;5.75;;;5.00;;
18142;SDS011;9197;50.930;3.140;2023-09-18T05:08:04;6.93;;;5.30;;
18142;SDS011;9197;50.930;3.140;2023-09-18T05:10:33;8.32;;;5.05;;
18142;SDS011;9197;50.930;3.140;2023-09-18T05:13:00;4.65;;;4.25;;
18142;SDS011;9197;50.930;3.140;2023-09-18T05:15:28;7.68;;;5.43;;
18142;SDS011;9197;50.930;3.140;2023-09-18T05:17:55;6.97;;;5.87;;
18142;SDS011;9197;50.930;3.140;2023-09-18T05:20:23;6.67;;;5.97;;
18142;SDS011;9197;50.930;3.140;2023-09-18T05:22:50;6.57;;;5.80;;
18142;SDS011;9197;50.930;3.140;2023-09-18T05:25:20;6.07;;;5.47;;
18142;SDS011;9197;50.930;3.140;2023-09-18T05:27:48;7.23;;;6.00;;
18142;SDS011;9197;50.930;3.140;2023-09-18T05:30:26;7.20;;;6.30;;
18142;SDS011;9197;50.930;3.140;2023-09-18T05:32:54;8.00;;;5.30;;
18142;SDS011;9197;50.930;3.140;2023-09-18T05:35:22;8.60;;;5.85;;
18142;SDS011;9197;50.930;3.140;2023-09-18T05:37:49;6.57;;;4.65;;
18142;SDS011;9197;50.930;3.140;2023-09-18T05:40:17;12.00;;;5.77;;
18142;SDS011;9197;50.930;3.140;2023-09-18T05:42:46;4.90;;;4.13;;
18142;SDS011;9197;50.930;3.140;2023-09-18T05:45:13;6.03;;;3.93;;
18142;SDS011;9197;50.930;3.140;2023-09-18T05:47:41;5.03;;;3.70;;
18142;SDS011;9197;50.930;3.140;2023-09-18T05:50:08;5.13;;;3.13;;
18142;SDS011;9197;50.930;3.140;2023-09-18T05:52:40;6.53;;;3.37;;
18142;SDS011;9197;50.930;3.140;2023-09-18T05:55:07;6.93;;;3.13;;
18142;SDS011;9197;50.930;3.140;2023-09-18T05:57:35;7.87;;;3.30;;
18142;SDS011;9197;50.930;3.140;2023-09-18T06:00:04;10.13;;;3.13;;
18142;SDS011;9197;50.930;3.140;2023-09-18T06:02:31;8.27;;;3.10;;
18142;SDS011;9197;50.930;3.140;2023-09-18T06:04:59;4.67;;;2.50;;
18142;SDS011;9197;50.930;3.140;2023-09-18T06:07:28;2.92;;;2.05;;
18142;SDS011;9197;50.930;3.140;2023-09-18T06:09:55;3.80;;;3.00;;
18142;SDS011;9197;50.930;3.140;2023-09-18T06:12:23;3.67;;;2.67;;
18142;SDS011;9197;50.930;3.140;2023-09-18T06:14:51;4.23;;;3.40;;
18142;SDS011;9197;50.930;3.140;2023-09-18T06:17:19;10.23;;;3.73;;
18142;SDS011;9197;50.930;3.140;2023-09-18T06:19:47;4.50;;;3.50;;
18142;SDS011;9197;50.930;3.140;2023-09-18T06:22:14;6.37;;;3.60;;
18142;SDS011;9197;50.930;3.140;2023-09-18T06:24:41;4.00;;;3.57;;
18142;SDS011;9197;50.930;3.140;2023-09-18T06:27:09;6.45;;;3.78;;
18142;SDS011;9197;50.930;3.140;2023-09-18T06:29:37;8.40;;;3.60;;
18142;SDS011;9197;50.930;3.140;2023-09-18T06:32:04;5.40;;;3.40;;
18142;SDS011;9197;50.930;3.140;2023-09-18T06:34:34;3.45;;;3.15;;
18142;SDS011;9197;50.930;3.140;2023-09-18T06:37:01;5.30;;;4.13;;
18142;SDS011;9197;50.930;3.140;2023-09-18T06:39:29;5.20;;;3.35;;
18142;SDS011;9197;50.930;3.140;2023-09-18T06:41:56;5.55;;;3.38;;
18142;SDS011;9197;50.930;3.140;2023-09-18T06:44:23;4.40;;;3.88;;
18142;SDS011;9197;50.930;3.140;2023-09-18T06:46:50;7.35;;;3.85;;
18142;SDS011;9197;50.930;3.140;2023-09-18T06:49:18;8.93;;;3.15;;
18142;SDS011;9197;50.930;3.140;2023-09-18T06:51:47;5.35;;;3.15;;
18142;SDS011;9197;50.930;3.140;2023-09-18T06:54:14;5.63;;;3.28;;
18142;SDS011;9197;50.930;3.140;2023-09-18T06:56:47;4.35;;;3.42;;
18142;SDS011;9197;50.930;3.140;2023-09-18T06:59:15;5.50;;;3.70;;
18142;SDS011;9197;50.930;3.140;2023-09-18T07:01:42;9.40;;;3.72;;
18142;SDS011;9197;50.930;3.140;2023-09-18T07:04:09;3.47;;;3.13;;
18142;SDS011;9197;50.930;3.140;2023-09-18T07:06:36;4.25;;;3.83;;
18142;SDS011;9197;50.930;3.140;2023-09-18T07:09:05;4.55;;;3.60;;
18142;SDS011;9197;50.930;3.140;2023-09-18T07:11:33;5.20;;;3.45;;
18142;SDS011;9197;50.930;3.140;2023-09-18T07:14:00;4.28;;;3.28;;
18142;SDS011;9197;50.930;3.140;2023-09-18T07:16:31;7.32;;;3.65;;
18142;SDS011;9197;50.930;3.140;2023-09-18T07:18:59;6.88;;;3.58;;
18142;SDS011;9197;50.930;3.140;2023-09-18T07:21:26;8.25;;;4.00;;
18142;SDS011;9197;50.930;3.140;2023-09-18T07:23:54;5.28;;;3.88;;
18142;SDS011;9197;50.930;3.140;2023-09-18T07:26:22;3.55;;;3.33;;
18142;SDS011;9197;50.930;3.140;2023-09-18T07:28:49;6.05;;;3.90;;
18142;SDS011;9197;50.930;3.140;2023-09-18T07:31:16;4.55;;;3.20;;
18142;SDS011;9197;50.930;3.140;2023-09-18T07:33:44;6.13;;;3.78;;
18142;SDS011;9197;50.930;3.140;2023-09-18T07:36:11;9.35;;;4.78;;
18142;SDS011;9197;50.930;3.140;2023-09-18T07:38:40;7.22;;;4.30;;
18142;SDS011;9197;50.930;3.140;2023-09-18T07:41:08;5.25;;;4.07;;
18142;SDS011;9197;50.930;3.140;2023-09-18T07:43:37;7.43;;;4.35;;
18142;SDS011;9197;50.930;3.140;2023-09-18T07:46:06;8.60;;;4.95;;
18142;SDS011;9197;50.930;3.140;2023-09-18T07:48:33;5.22;;;4.60;;
18142;SDS011;9197;50.930;3.140;2023-09-18T07:51:02;5.95;;;3.20;;
18142;SDS011;9197;50.930;3.140;2023-09-18T07:53:30;6.13;;;3.00;;
18142;SDS011;9197;50.930;3.140;2023-09-18T07:55:58;5.65;;;3.17;;
18142;SDS011;9197;50.930;3.140;2023-09-18T07:58:26;5.70;;;3.08;;
18142;SDS011;9197;50.930;3.140;2023-09-18T08:00:55;4.03;;;2.75;;
18142;SDS011;9197;50.930;3.140;2023-09-18T08:03:23;3.92;;;2.83;;
18142;SDS011;9197;50.930;3.140;2023-09-18T08:05:51;4.45;;;3.30;;
18142;SDS011;9197;50.930;3.140;2023-09-18T08:08:19;4.00;;;2.90;;
18142;SDS011;9197;50.930;3.140;2023-09-18T08:10:47;7.20;;;2.75;;
18142;SDS011;9197;50.930;3.140;2023-09-18T08:13:14;5.82;;;2.85;;
18142;SDS011;9197;50.930;3.140;2023-09-18T08:15:41;6.50;;;2.92;;
18142;SDS011;9197;50.930;3.140;2023-09-18T08:18:10;6.97;;;3.40;;
18142;SDS011;9197;50.930;3.140;2023-09-18T08:20:39;2.97;;;2.67;;
18142;SDS011;9197;50.930;3.140;2023-09-18T08:23:07;5.50;;;4.05;;
18142;SDS011;9197;50.930;3.140;2023-09-18T08:25:34;6.78;;;3.17;;
18142;SDS011;9197;50.930;3.140;2023-09-18T08:28:02;3.42;;;3.00;;
18142;SDS011;9197;50.930;3.140;2023-09-18T08:30:29;5.07;;;3.03;;
18142;SDS011;9197;50.930;3.140;2023-09-18T08:32:57;4.82;;;3.20;;
18142;SDS011;9197;50.930;3.140;2023-09-18T08:35:25;5.72;;;4.10;;
18142;SDS011;9197;50.930;3.140;2023-09-18T08:37:54;4.53;;;3.42;;
18142;SDS011;9197;50.930;3.140;2023-09-18T08:40:22;3.47;;;3.17;;
18142;SDS011;9197;50.930;3.140;2023-09-18T08:42:51;6.70;;;3.28;;
18142;SDS011;9197;50.930;3.140;2023-09-18T08:45:22;6.32;;;3.55;;
18142;SDS011;9197;50.930;3.140;2023-09-18T08:47:49;6.80;;;3.28;;
18142;SDS011;9197;50.930;3.140;2023-09-18T08:50:18;2.97;;;2.63;;
18142;SDS011;9197;50.930;3.140;2023-09-18T08:52:47;6.75;;;3.75;;
18142;SDS011;9197;50.930;3.140;2023-09-18T08:55:16;5.20;;;3.13;;
18142;SDS011;9197;50.930;3.140;2023-09-18T08:57:43;3.78;;;2.90;;
18142;SDS011;9197;50.930;3.140;2023-09-18T09:00:11;5.95;;;3.45;;
18142;SDS011;9197;50.930;3.140;2023-09-18T09:02:42;6.03;;;2.97;;
18142;SDS011;9197;50.930;3.140;2023-09-18T09:05:09;3.85;;;2.70;;
18142;SDS011;9197;50.930;3.140;2023-09-18T09:07:36;3.83;;;2.95;;
18142;SDS011;9197;50.930;3.140;2023-09-18T09:10:05;4.78;;;3.05;;
18142;SDS011;9197;50.930;3.140;2023-09-18T09:15:32;5.72;;;3.55;;
18142;SDS011;9197;50.930;3.140;2023-09-18T09:18:01;5.28;;;3.72;;
18142;SDS011;9197;50.930;3.140;2023-09-18T09:20:29;5.30;;;3.67;;
18142;SDS011;9197;50.930;3.140;2023-09-18T09:22:59;7.25;;;3.83;;
18142;SDS011;9197;50.930;3.140;2023-09-18T09:25:29;5.10;;;3.20;;
18142;SDS011;9197;50.930;3.140;2023-09-18T09:27:58;4.97;;;4.47;;
18142;SDS011;9197;50.930;3.140;2023-09-18T09:30:26;7.75;;;4.03;;
18142;SDS011;9197;50.930;3.140;2023-09-18T09:32:54;4.82;;;3.58;;
18142;SDS011;9197;50.930;3.140;2023-09-18T09:35:22;6.13;;;3.75;;
18142;SDS011;9197;50.930;3.140;2023-09-18T09:37:52;5.20;;;3.50;;
18142;SDS011;9197;50.930;3.140;2023-09-18T09:40:20;4.57;;;3.75;;
18142;SDS011;9197;50.930;3.140;2023-09-18T09:42:52;3.67;;;3.25;;
18142;SDS011;9197;50.930;3.140;2023-09-18T09:45:25;4.72;;;3.10;;
18142;SDS011;9197;50.930;3.140;2023-09-18T09:47:53;6.50;;;3.20;;
18142;SDS011;9197;50.930;3.140;2023-09-18T09:50:20;5.45;;;2.40;;
18142;SDS011;9197;50.930;3.140;2023-09-18T09:52:48;4.82;;;2.58;;
18142;SDS011;9197;50.930;3.140;2023-09-18T09:55:19;4.72;;;2.30;;
18142;SDS011;9197;50.930;3.140;2023-09-18T09:57:47;7.43;;;3.13;;
18142;SDS011;9197;50.930;3.140;2023-09-18T10:00:16;3.28;;;2.85;;
18142;SDS011;9197;50.930;3.140;2023-09-18T10:02:59;4.25;;;3.35;;
18142;SDS011;9197;50.930;3.140;2023-09-18T10:05:28;4.32;;;2.70;;
18142;SDS011;9197;50.930;3.140;2023-09-18T10:07:57;6.18;;;3.22;;
18142;SDS011;9197;50.930;3.140;2023-09-18T10:10:27;3.80;;;2.88;;
18142;SDS011;9197;50.930;3.140;2023-09-18T10:12:56;5.63;;;2.88;;
18142;SDS011;9197;50.930;3.140;2023-09-18T10:15:27;6.40;;;3.38;;
18142;SDS011;9197;50.930;3.140;2023-09-18T10:17:56;5.38;;;3.10;;
18142;SDS011;9197;50.930;3.140;2023-09-18T10:20:24;4.18;;;3.17;;
18142;SDS011;9197;50.930;3.140;2023-09-18T10:22:56;4.38;;;3.20;;
18142;SDS011;9197;50.930;3.140;2023-09-18T10:25:24;4.57;;;3.15;;
18142;SDS011;9197;50.930;3.140;2023-09-18T10:27:53;4.15;;;3.42;;
18142;SDS011;9197;50.930;3.140;2023-09-18T10:30:28;4.22;;;2.97;;
18142;SDS011;9197;50.930;3.140;2023-09-18T10:32:57;4.50;;;2.90;;
18142;SDS011;9197;50.930;3.140;2023-09-18T10:35:26;4.45;;;2.75;;
18142;SDS011;9197;50.930;3.140;2023-09-18T10:37:54;4.50;;;2.60;;
18142;SDS011;9197;50.930;3.140;2023-09-18T10:40:21;5.20;;;2.47;;
18142;SDS011;9197;50.930;3.140;2023-09-18T10:42:51;3.38;;;2.60;;
18142;SDS011;9197;50.930;3.140;2023-09-18T10:45:22;4.18;;;2.28;;
18142;SDS011;9197;50.930;3.140;2023-09-18T10:47:50;6.05;;;2.88;;
18142;SDS011;9197;50.930;3.140;2023-09-18T10:50:24;3.35;;;2.63;;
18142;SDS011;9197;50.930;3.140;2023-09-18T10:52:51;3.88;;;2.70;;
18142;SDS011;9197;50.930;3.140;2023-09-18T10:55:20;5.40;;;2.33;;
18142;SDS011;9197;50.930;3.140;2023-09-18T10:57:52;3.17;;;2.15;;
18142;SDS011;9197;50.930;3.140;2023-09-18T11:00:20;3.25;;;2.55;;
18142;SDS011;9197;50.930;3.140;2023-09-18T11:02:52;5.57;;;3.42;;
18142;SDS011;9197;50.930;3.140;2023-09-18T11:05:29;3.17;;;2.47;;
18142;SDS011;9197;50.930;3.140;2023-09-18T11:10:54;5.85;;;2.45;;
18142;SDS011;9197;50.930;3.140;2023-09-18T11:13:28;3.60;;;2.60;;
18142;SDS011;9197;50.930;3.140;2023-09-18T11:15:58;2.60;;;2.28;;
18142;SDS011;9197;50.930;3.140;2023-09-18T11:18:33;3.30;;;2.40;;
18142;SDS011;9197;50.930;3.140;2023-09-18T11:21:06;3.85;;;2.10;;
18142;SDS011;9197;50.930;3.140;2023-09-18T11:23:34;4.78;;;2.20;;
18142;SDS011;9197;50.930;3.140;2023-09-18T11:26:03;4.43;;;2.38;;
18142;SDS011;9197;50.930;3.140;2023-09-18T11:28:31;3.92;;;2.55;;
18142;SDS011;9197;50.930;3.140;2023-09-18T11:30:58;4.60;;;2.45;;
18142;SDS011;9197;50.930;3.140;2023-09-18T11:33:35;4.35;;;2.25;;
18142;SDS011;9197;50.930;3.140;2023-09-18T11:36:04;3.33;;;2.20;;
18142;SDS011;9197;50.930;3.140;2023-09-18T11:38:52;3.20;;;2.63;;
18142;SDS011;9197;50.930;3.140;2023-09-18T11:41:21;6.30;;;2.70;;
18142;SDS011;9197;50.930;3.140;2023-09-18T11:43:49;3.47;;;2.05;;
18142;SDS011;9197;50.930;3.140;2023-09-18T11:46:20;5.68;;;2.53;;
18142;SDS011;9197;50.930;3.140;2023-09-18T11:48:49;4.47;;;2.05;;
18142;SDS011;9197;50.930;3.140;2023-09-18T11:51:22;5.57;;;2.50;;
18142;SDS011;9197;50.930;3.140;2023-09-18T11:53:53;3.38;;;2.10;;
18142;SDS011;9197;50.930;3.140;2023-09-18T11:56:21;3.83;;;2.25;;
18142;SDS011;9197;50.930;3.140;2023-09-18T11:58:50;4.10;;;2.60;;
18142;SDS011;9197;50.930;3.140;2023-09-18T12:01:17;3.63;;;2.45;;
18142;SDS011;9197;50.930;3.140;2023-09-18T12:03:45;4.95;;;1.90;;
18142;SDS011;9197;50.930;3.140;2023-09-18T12:06:15;3.00;;;2.47;;
18142;SDS011;9197;50.930;3.140;2023-09-18T12:08:43;3.13;;;2.03;;
18142;SDS011;9197;50.930;3.140;2023-09-18T12:11:12;6.03;;;2.28;;
18142;SDS011;9197;50.930;3.140;2023-09-18T12:13:42;2.58;;;2.30;;
18142;SDS011;9197;50.930;3.140;2023-09-18T12:16:09;5.85;;;2.30;;
18142;SDS011;9197;50.930;3.140;2023-09-18T12:18:36;3.00;;;2.20;;
18142;SDS011;9197;50.930;3.140;2023-09-18T12:21:05;8.15;;;3.03;;
18142;SDS011;9197;50.930;3.140;2023-09-18T12:23:38;4.82;;;2.40;;
18142;SDS011;9197;50.930;3.140;2023-09-18T12:26:05;4.43;;;2.45;;
18142;SDS011;9197;50.930;3.140;2023-09-18T12:28:33;4.47;;;2.35;;
18142;SDS011;9197;50.930;3.140;2023-09-18T12:31:02;4.03;;;2.22;;
18142;SDS011;9197;50.930;3.140;2023-09-18T12:33:33;3.20;;;2.30;;
18142;SDS011;9197;50.930;3.140;2023-09-18T12:36:01;5.13;;;2.70;;
18142;SDS011;9197;50.930;3.140;2023-09-18T12:38:30;5.95;;;2.80;;
18142;SDS011;9197;50.930;3.140;2023-09-18T12:40:58;7.70;;;3.83;;
18142;SDS011;9197;50.930;3.140;2023-09-18T12:43:32;8.02;;;2.95;;
18142;SDS011;9197;50.930;3.140;2023-09-18T12:46:00;6.47;;;3.45;;
18142;SDS011;9197;50.930;3.140;2023-09-18T12:48:28;6.70;;;3.38;;
18142;SDS011;9197;50.930;3.140;2023-09-18T12:50:57;7.22;;;3.78;;
18142;SDS011;9197;50.930;3.140;2023-09-18T12:53:28;3.60;;;3.15;;
18142;SDS011;9197;50.930;3.140;2023-09-18T12:56:05;6.07;;;3.67;;
18142;SDS011;9197;50.930;3.140;2023-09-18T12:58:32;12.35;;;4.32;;
18142;SDS011;9197;50.930;3.140;2023-09-18T13:01:03;4.22;;;3.80;;
18142;SDS011;9197;50.930;3.140;2023-09-18T13:03:33;5.93;;;4.80;;
18142;SDS011;9197;50.930;3.140;2023-09-18T13:06:06;7.82;;;4.40;;
18142;SDS011;9197;50.930;3.140;2023-09-18T13:08:34;7.45;;;4.10;;
18142;SDS011;9197;50.930;3.140;2023-09-18T13:11:01;5.95;;;4.47;;
18142;SDS011;9197;50.930;3.140;2023-09-18T13:13:33;6.22;;;4.05;;
18142;SDS011;9197;50.930;3.140;2023-09-18T13:16:00;6.18;;;4.32;;
18142;SDS011;9197;50.930;3.140;2023-09-18T13:18:29;5.13;;;3.53;;
18142;SDS011;9197;50.930;3.140;2023-09-18T13:20:56;3.85;;;3.53;;
18142;SDS011;9197;50.930;3.140;2023-09-18T13:23:27;4.40;;;3.33;;
18142;SDS011;9197;50.930;3.140;2023-09-18T13:25:58;3.63;;;2.65;;
18142;SDS011;9197;50.930;3.140;2023-09-18T13:28:25;3.50;;;2.47;;
18142;SDS011;9197;50.930;3.140;2023-09-18T13:30:57;3.85;;;2.70;;
18142;SDS011;9197;50.930;3.140;2023-09-18T13:33:24;2.00;;;1.90;;
18142;SDS011;9197;50.930;3.140;2023-09-18T13:35:52;2.45;;;2.20;;
18142;SDS011;9197;50.930;3.140;2023-09-18T13:38:21;3.70;;;2.40;;
18142;SDS011;9197;50.930;3.140;2023-09-18T13:40:48;2.78;;;2.58;;
18142;SDS011;9197;50.930;3.140;2023-09-18T13:43:16;2.80;;;2.38;;
18142;SDS011;9197;50.930;3.140;2023-09-18T13:45:46;3.42;;;2.40;;
18142;SDS011;9197;50.930;3.140;2023-09-18T13:48:18;2.88;;;2.50;;
18142;SDS011;9197;50.930;3.140;2023-09-18T13:50:46;2.95;;;1.58;;
18142;SDS011;9197;50.930;3.140;2023-09-18T13:53:14;5.32;;;2.22;;
18142;SDS011;9197;50.930;3.140;2023-09-18T13:55:41;3.97;;;1.70;;
18142;SDS011;9197;50.930;3.140;2023-09-18T13:58:08;3.13;;;1.80;;
18142;SDS011;9197;50.930;3.140;2023-09-18T14:00:36;4.13;;;1.77;;
18142;SDS011;9197;50.930;3.140;2023-09-18T14:03:03;6.05;;;2.13;;
18142;SDS011;9197;50.930;3.140;2023-09-18T14:05:32;3.67;;;2.10;;
18142;SDS011;9197;50.930;3.140;2023-09-18T14:07:59;4.28;;;1.80;;
18142;SDS011;9197;50.930;3.140;2023-09-18T14:10:28;4.45;;;2.10;;
18142;SDS011;9197;50.930;3.140;2023-09-18T14:12:55;2.22;;;1.88;;
18142;SDS011;9197;50.930;3.140;2023-09-18T14:15:23;3.35;;;1.73;;
18142;SDS011;9197;50.930;3.140;2023-09-18T14:17:51;6.85;;;2.00;;
18142;SDS011;9197;50.930;3.140;2023-09-18T14:20:19;3.08;;;1.95;;
18142;SDS011;9197;50.930;3.140;2023-09-18T14:22:48;4.38;;;2.00;;
18142;SDS011;9197;50.930;3.140;2023-09-18T14:25:15;4.70;;;2.22;;
18142;SDS011;9197;50.930;3.140;2023-09-18T14:27:45;5.55;;;1.65;;
18142;SDS011;9197;50.930;3.140;2023-09-18T14:30:12;4.80;;;1.88;;
18142;SDS011;9197;50.930;3.140;2023-09-18T14:32:39;4.18;;;1.65;;
18142;SDS011;9197;50.930;3.140;2023-09-18T14:35:07;5.97;;;2.33;;
18142;SDS011;9197;50.930;3.140;2023-09-18T14:37:35;5.65;;;1.60;;
18142;SDS011;9197;50.930;3.140;2023-09-18T14:40:04;5.57;;;1.85;;
18142;SDS011;9197;50.930;3.140;2023-09-18T14:42:36;5.63;;;2.22;;
18142;SDS011;9197;50.930;3.140;2023-09-18T14:45:04;4.78;;;2.10;;
18142;SDS011;9197;50.930;3.140;2023-09-18T14:47:31;7.03;;;2.33;;
18142;SDS011;9197;50.930;3.140;2023-09-18T14:49:58;5.28;;;2.35;;
18142;SDS011;9197;50.930;3.140;2023-09-18T14:52:26;6.28;;;1.63;;
18142;SDS011;9197;50.930;3.140;2023-09-18T14:54:54;7.68;;;2.38;;
18142;SDS011;9197;50.930;3.140;2023-09-18T14:57:23;5.50;;;2.15;;
18142;SDS011;9197;50.930;3.140;2023-09-18T14:59:51;5.53;;;1.80;;
18142;SDS011;9197;50.930;3.140;2023-09-18T15:02:19;6.60;;;2.38;;
18142;SDS011;9197;50.930;3.140;2023-09-18T15:04:46;7.65;;;2.38;;
18142;SDS011;9197;50.930;3.140;2023-09-18T15:07:13;7.20;;;1.75;;
18142;SDS011;9197;50.930;3.140;2023-09-18T15:09:42;6.68;;;2.72;;
18142;SDS011;9197;50.930;3.140;2023-09-18T15:12:09;6.70;;;2.50;;
18142;SDS011;9197;50.930;3.140;2023-09-18T15:14:38;9.45;;;1.95;;